sensor_id;sensor_type;location;lat;lon;timestamp;temperature;humidity
72772;SHT30;60894;42.544;1.516;2023-12-14T00:02:25;3.24;83.80
72772;SHT30;60894;42.544;1.516;2023-12-14T00:04:53;3.28;84.37
72772;SHT30;60894;42.544;1.516;2023-12-14T00:07:20;3.30;84.13
72772;SHT30;60894;42.544;1.516;2023-12-14T00:09:47;3.37;83.33
72772;SHT30;60894;42.544;1.516;2023-12-14T00:12:14;3.38;83.63
72772;SHT30;60894;42.544;1.516;2023-12-14T00:14:41;3.34;84.00
72772;SHT30;60894;42.544;1.516;2023-12-14T00:17:08;3.44;83.60
72772;SHT30;60894;42.544;1.516;2023-12-14T00:19:34;3.35;83.93
72772;SHT30;60894;42.544;1.516;2023-12-14T00:22:03;3.37;83.76
72772;SHT30;60894;42.544;1.516;2023-12-14T00:24:30;3.47;83.69
72772;SHT30;60894;42.544;1.516;2023-12-14T00:26:57;3.45;83.02
72772;SHT30;60894;42.544;1.516;2023-12-14T00:29:24;3.41;83.20
72772;SHT30;60894;42.544;1.516;2023-12-14T00:31:51;3.31;83.89
72772;SHT30;60894;42.544;1.516;2023-12-14T00:34:18;3.40;84.16
72772;SHT30;60894;42.544;1.516;2023-12-14T00:36:45;3.40;84.46
72772;SHT30;60894;42.544;1.516;2023-12-14T00:39:13;3.37;83.88
72772;SHT30;60894;42.544;1.516;2023-12-14T00:41:40;3.48;83.50
72772;SHT30;60894;42.544;1.516;2023-12-14T00:44:07;3.23;83.61
72772;SHT30;60894;42.544;1.516;2023-12-14T00:46:34;3.30;83.82
72772;SHT30;60894;42.544;1.516;2023-12-14T00:49:01;3.34;83.87
72772;SHT30;60894;42.544;1.516;2023-12-14T00:51:28;3.31;83.85
72772;SHT30;60894;42.544;1.516;2023-12-14T00:53:55;3.33;83.76
72772;SHT30;60894;42.544;1.516;2023-12-14T00:56:24;3.40;84.28
72772;SHT30;60894;42.544;1.516;2023-12-14T00:58:51;3.37;83.65
72772;SHT30;60894;42.544;1.516;2023-12-14T01:01:18;3.17;83.62
72772;SHT30;60894;42.544;1.516;2023-12-14T01:03:45;3.13;83.40
72772;SHT30;60894;42.544;1.516;2023-12-14T01:06:12;2.83;83.81
72772;SHT30;60894;42.544;1.516;2023-12-14T01:08:38;2.75;84.24
72772;SHT30;60894;42.544;1.516;2023-12-14T01:11:05;2.56;85.20
72772;SHT30;60894;42.544;1.516;2023-12-14T01:13:34;2.66;85.19
72772;SHT30;60894;42.544;1.516;2023-12-14T01:16:01;2.72;85.24
72772;SHT30;60894;42.544;1.516;2023-12-14T01:18:28;2.75;85.08
72772;SHT30;60894;42.544;1.516;2023-12-14T01:20:55;2.79;84.69
72772;SHT30;60894;42.544;1.516;2023-12-14T01:23:22;2.71;85.08
72772;SHT30;60894;42.544;1.516;2023-12-14T01:25:49;2.81;84.98
72772;SHT30;60894;42.544;1.516;2023-12-14T01:28:16;2.88;84.56
72772;SHT30;60894;42.544;1.516;2023-12-14T01:30:44;2.85;84.39
72772;SHT30;60894;42.544;1.516;2023-12-14T01:33:11;2.96;84.42
72772;SHT30;60894;42.544;1.516;2023-12-14T01:35:38;2.90;81.78
72772;SHT30;60894;42.544;1.516;2023-12-14T01:38:05;2.92;81.40
72772;SHT30;60894;42.544;1.516;2023-12-14T01:40:32;3.04;81.31
72772;SHT30;60894;42.544;1.516;2023-12-14T01:43:08;3.10;80.43
72772;SHT30;60894;42.544;1.516;2023-12-14T01:45:36;3.16;78.98
72772;SHT30;60894;42.544;1.516;2023-12-14T01:48:05;3.10;80.45
72772;SHT30;60894;42.544;1.516;2023-12-14T01:50:32;3.16;80.74
72772;SHT30;60894;42.544;1.516;2023-12-14T01:52:59;3.00;81.51
72772;SHT30;60894;42.544;1.516;2023-12-14T01:55:26;2.97;81.84
72772;SHT30;60894;42.544;1.516;2023-12-14T01:57:53;2.82;81.88
72772;SHT30;60894;42.544;1.516;2023-12-14T02:00:25;2.78;82.38
72772;SHT30;60894;42.544;1.516;2023-12-14T02:02:54;2.52;84.01
72772;SHT30;60894;42.544;1.516;2023-12-14T02:05:23;2.48;84.22
72772;SHT30;60894;42.544;1.516;2023-12-14T02:07:50;2.53;84.41
72772;SHT30;60894;42.544;1.516;2023-12-14T02:10:16;2.59;84.15
72772;SHT30;60894;42.544;1.516;2023-12-14T02:12:43;2.46;84.12
72772;SHT30;60894;42.544;1.516;2023-12-14T02:15:11;2.37;85.11
72772;SHT30;60894;42.544;1.516;2023-12-14T02:17:38;2.25;85.59
72772;SHT30;60894;42.544;1.516;2023-12-14T02:20:06;2.25;86.04
72772;SHT30;60894;42.544;1.516;2023-12-14T02:22:36;2.32;86.33
72772;SHT30;60894;42.544;1.516;2023-12-14T02:25:14;2.46;86.34
72772;SHT30;60894;42.544;1.516;2023-12-14T02:27:41;2.37;85.69
72772;SHT30;60894;42.544;1.516;2023-12-14T02:30:09;2.37;86.21
72772;SHT30;60894;42.544;1.516;2023-12-14T02:32:36;2.46;86.52
72772;SHT30;60894;42.544;1.516;2023-12-14T02:35:04;2.48;86.37
72772;SHT30;60894;42.544;1.516;2023-12-14T02:37:31;2.55;85.99
72772;SHT30;60894;42.544;1.516;2023-12-14T02:40:00;2.34;86.14
72772;SHT30;60894;42.544;1.516;2023-12-14T02:42:27;2.46;86.01
72772;SHT30;60894;42.544;1.516;2023-12-14T02:44:54;2.53;86.20
72772;SHT30;60894;42.544;1.516;2023-12-14T02:47:21;2.49;85.66
72772;SHT30;60894;42.544;1.516;2023-12-14T02:49:48;2.35;85.33
72772;SHT30;60894;42.544;1.516;2023-12-14T02:52:15;2.48;85.66
72772;SHT30;60894;42.544;1.516;2023-12-14T02:54:42;2.52;85.32
72772;SHT30;60894;42.544;1.516;2023-12-14T02:57:10;2.44;81.95
72772;SHT30;60894;42.544;1.516;2023-12-14T02:59:37;2.51;80.69
72772;SHT30;60894;42.544;1.516;2023-12-14T03:02:04;2.55;83.88
72772;SHT30;60894;42.544;1.516;2023-12-14T03:04:31;2.68;84.26
72772;SHT30;60894;42.544;1.516;2023-12-14T03:06:58;2.61;84.40
72772;SHT30;60894;42.544;1.516;2023-12-14T03:09:27;2.69;84.16
72772;SHT30;60894;42.544;1.516;2023-12-14T03:11:54;2.73;83.99
72772;SHT30;60894;42.544;1.516;2023-12-14T03:14:23;2.78;83.46
72772;SHT30;60894;42.544;1.516;2023-12-14T03:16:50;2.76;83.64
72772;SHT30;60894;42.544;1.516;2023-12-14T03:19:17;2.75;83.34
72772;SHT30;60894;42.544;1.516;2023-12-14T03:21:44;2.81;83.05
72772;SHT30;60894;42.544;1.516;2023-12-14T03:24:11;2.81;83.24
72772;SHT30;60894;42.544;1.516;2023-12-14T03:26:37;2.73;83.16
72772;SHT30;60894;42.544;1.516;2023-12-14T03:29:04;2.79;83.55
72772;SHT30;60894;42.544;1.516;2023-12-14T03:31:34;2.82;82.91
72772;SHT30;60894;42.544;1.516;2023-12-14T03:34:03;2.76;82.83
72772;SHT30;60894;42.544;1.516;2023-12-14T03:36:31;2.53;82.59
72772;SHT30;60894;42.544;1.516;2023-12-14T03:38:57;2.48;82.85
72772;SHT30;60894;42.544;1.516;2023-12-14T03:41:24;2.41;82.81
72772;SHT30;60894;42.544;1.516;2023-12-14T03:43:51;2.48;83.41
72772;SHT30;60894;42.544;1.516;2023-12-14T03:46:18;2.56;84.36
72772;SHT30;60894;42.544;1.516;2023-12-14T03:48:46;2.58;84.45
72772;SHT30;60894;42.544;1.516;2023-12-14T03:51:13;2.62;83.86
72772;SHT30;60894;42.544;1.516;2023-12-14T03:53:44;2.68;83.70
72772;SHT30;60894;42.544;1.516;2023-12-14T03:56:11;2.71;83.94
72772;SHT30;60894;42.544;1.516;2023-12-14T03:58:38;2.65;84.22
72772;SHT30;60894;42.544;1.516;2023-12-14T04:01:05;2.72;84.58
72772;SHT30;60894;42.544;1.516;2023-12-14T04:03:32;2.79;83.73
72772;SHT30;60894;42.544;1.516;2023-12-14T04:06:00;2.75;83.70
72772;SHT30;60894;42.544;1.516;2023-12-14T04:08:27;2.75;84.48
72772;SHT30;60894;42.544;1.516;2023-12-14T04:10:54;2.81;84.65
72772;SHT30;60894;42.544;1.516;2023-12-14T04:13:21;2.72;83.59
72772;SHT30;60894;42.544;1.516;2023-12-14T04:15:48;2.68;83.14
72772;SHT30;60894;42.544;1.516;2023-12-14T04:18:14;2.78;81.88
72772;SHT30;60894;42.544;1.516;2023-12-14T04:20:41;2.76;82.35
72772;SHT30;60894;42.544;1.516;2023-12-14T04:23:10;2.78;83.57
72772;SHT30;60894;42.544;1.516;2023-12-14T04:25:37;2.76;84.23
72772;SHT30;60894;42.544;1.516;2023-12-14T04:28:04;2.68;84.66
72772;SHT30;60894;42.544;1.516;2023-12-14T04:30:31;2.56;85.08
72772;SHT30;60894;42.544;1.516;2023-12-14T04:32:58;2.59;85.29
72772;SHT30;60894;42.544;1.516;2023-12-14T04:35:24;2.62;85.60
72772;SHT30;60894;42.544;1.516;2023-12-14T04:37:51;2.71;85.26
72772;SHT30;60894;42.544;1.516;2023-12-14T04:40:20;2.49;84.81
72772;SHT30;60894;42.544;1.516;2023-12-14T04:42:47;2.44;84.14
72772;SHT30;60894;42.544;1.516;2023-12-14T04:45:14;2.24;84.68
72772;SHT30;60894;42.544;1.516;2023-12-14T04:47:42;2.21;85.39
72772;SHT30;60894;42.544;1.516;2023-12-14T04:50:09;2.24;85.54
72772;SHT30;60894;42.544;1.516;2023-12-14T04:52:37;2.32;86.03
72772;SHT30;60894;42.544;1.516;2023-12-14T04:55:05;2.44;86.02
72772;SHT30;60894;42.544;1.516;2023-12-14T04:57:35;2.51;85.60
72772;SHT30;60894;42.544;1.516;2023-12-14T05:00:02;2.53;85.29
72772;SHT30;60894;42.544;1.516;2023-12-14T05:02:31;2.62;85.29
72772;SHT30;60894;42.544;1.516;2023-12-14T05:04:58;2.51;84.33
72772;SHT30;60894;42.544;1.516;2023-12-14T05:07:25;2.46;84.53
72772;SHT30;60894;42.544;1.516;2023-12-14T05:09:52;2.44;84.94
72772;SHT30;60894;42.544;1.516;2023-12-14T05:12:19;2.51;85.35
72772;SHT30;60894;42.544;1.516;2023-12-14T05:14:48;2.51;85.02
72772;SHT30;60894;42.544;1.516;2023-12-14T05:17:14;2.41;84.98
72772;SHT30;60894;42.544;1.516;2023-12-14T05:19:41;2.30;85.04
72772;SHT30;60894;42.544;1.516;2023-12-14T05:22:08;2.42;84.99
72772;SHT30;60894;42.544;1.516;2023-12-14T05:24:35;2.25;83.95
72772;SHT30;60894;42.544;1.516;2023-12-14T05:27:02;2.27;84.85
72772;SHT30;60894;42.544;1.516;2023-12-14T05:29:29;2.25;83.80
72772;SHT30;60894;42.544;1.516;2023-12-14T05:31:59;2.38;83.20
72772;SHT30;60894;42.544;1.516;2023-12-14T05:34:26;2.20;83.47
72772;SHT30;60894;42.544;1.516;2023-12-14T05:36:53;2.21;84.26
72772;SHT30;60894;42.544;1.516;2023-12-14T05:39:20;2.27;84.95
72772;SHT30;60894;42.544;1.516;2023-12-14T05:41:48;2.24;85.20
72772;SHT30;60894;42.544;1.516;2023-12-14T05:44:15;2.21;85.50
72772;SHT30;60894;42.544;1.516;2023-12-14T05:46:42;2.32;86.10
72772;SHT30;60894;42.544;1.516;2023-12-14T05:49:10;2.35;85.58
72772;SHT30;60894;42.544;1.516;2023-12-14T05:51:37;2.27;84.15
72772;SHT30;60894;42.544;1.516;2023-12-14T05:54:05;2.09;84.04
72772;SHT30;60894;42.544;1.516;2023-12-14T05:56:32;2.24;82.99
72772;SHT30;60894;42.544;1.516;2023-12-14T05:58:59;2.18;82.19
72772;SHT30;60894;42.544;1.516;2023-12-14T06:01:26;2.22;80.55
72772;SHT30;60894;42.544;1.516;2023-12-14T06:03:53;2.03;82.18
72772;SHT30;60894;42.544;1.516;2023-12-14T06:06:21;1.93;83.83
72772;SHT30;60894;42.544;1.516;2023-12-14T06:08:48;1.94;85.45
72772;SHT30;60894;42.544;1.516;2023-12-14T06:11:15;2.01;84.86
72772;SHT30;60894;42.544;1.516;2023-12-14T06:13:42;2.03;84.25
72772;SHT30;60894;42.544;1.516;2023-12-14T06:16:09;2.07;82.74
72772;SHT30;60894;42.544;1.516;2023-12-14T06:18:39;2.06;82.18
72772;SHT30;60894;42.544;1.516;2023-12-14T06:21:07;2.07;83.22
72772;SHT30;60894;42.544;1.516;2023-12-14T06:23:36;2.18;82.16
72772;SHT30;60894;42.544;1.516;2023-12-14T06:26:03;2.09;82.74
72772;SHT30;60894;42.544;1.516;2023-12-14T06:28:29;2.07;82.99
72772;SHT30;60894;42.544;1.516;2023-12-14T06:30:57;2.21;84.50
72772;SHT30;60894;42.544;1.516;2023-12-14T06:33:24;2.14;84.80
72772;SHT30;60894;42.544;1.516;2023-12-14T06:35:51;2.20;85.00
72772;SHT30;60894;42.544;1.516;2023-12-14T06:38:17;2.22;83.88
72772;SHT30;60894;42.544;1.516;2023-12-14T06:40:46;2.10;83.50
72772;SHT30;60894;42.544;1.516;2023-12-14T06:43:13;1.96;81.82
72772;SHT30;60894;42.544;1.516;2023-12-14T06:45:40;1.99;83.04
72772;SHT30;60894;42.544;1.516;2023-12-14T06:48:07;1.99;84.62
72772;SHT30;60894;42.544;1.516;2023-12-14T06:50:33;1.94;82.56
72772;SHT30;60894;42.544;1.516;2023-12-14T06:53:00;1.96;82.84
72772;SHT30;60894;42.544;1.516;2023-12-14T06:55:27;1.96;81.77
72772;SHT30;60894;42.544;1.516;2023-12-14T06:57:56;2.04;83.09
72772;SHT30;60894;42.544;1.516;2023-12-14T07:00:23;2.06;84.59
72772;SHT30;60894;42.544;1.516;2023-12-14T07:02:50;2.14;83.98
72772;SHT30;60894;42.544;1.516;2023-12-14T07:05:17;2.20;84.12
72772;SHT30;60894;42.544;1.516;2023-12-14T07:07:44;2.30;83.81
72772;SHT30;60894;42.544;1.516;2023-12-14T07:10:10;2.20;83.37
72772;SHT30;60894;42.544;1.516;2023-12-14T07:12:37;2.28;83.32
72772;SHT30;60894;42.544;1.516;2023-12-14T07:15:07;2.11;81.73
72772;SHT30;60894;42.544;1.516;2023-12-14T07:17:34;2.07;82.09
72772;SHT30;60894;42.544;1.516;2023-12-14T07:20:00;2.03;82.44
72772;SHT30;60894;42.544;1.516;2023-12-14T07:22:27;2.17;83.63
72772;SHT30;60894;42.544;1.516;2023-12-14T07:24:54;2.22;84.65
72772;SHT30;60894;42.544;1.516;2023-12-14T07:27:21;2.22;83.60
72772;SHT30;60894;42.544;1.516;2023-12-14T07:29:48;2.20;83.52
72772;SHT30;60894;42.544;1.516;2023-12-14T07:32:17;2.21;83.44
72772;SHT30;60894;42.544;1.516;2023-12-14T07:34:44;2.20;82.45
72772;SHT30;60894;42.544;1.516;2023-12-14T07:37:11;2.24;82.78
72772;SHT30;60894;42.544;1.516;2023-12-14T07:39:38;2.03;81.68
72772;SHT30;60894;42.544;1.516;2023-12-14T07:42:05;1.94;82.53
72772;SHT30;60894;42.544;1.516;2023-12-14T07:44:32;2.09;82.27
72772;SHT30;60894;42.544;1.516;2023-12-14T07:47:01;2.11;83.22
72772;SHT30;60894;42.544;1.516;2023-12-14T07:49:30;2.14;83.85
72772;SHT30;60894;42.544;1.516;2023-12-14T07:51:57;2.22;84.03
72772;SHT30;60894;42.544;1.516;2023-12-14T07:54:24;2.30;83.69
72772;SHT30;60894;42.544;1.516;2023-12-14T07:56:52;2.37;83.86
72772;SHT30;60894;42.544;1.516;2023-12-14T07:59:19;2.35;83.16
72772;SHT30;60894;42.544;1.516;2023-12-14T08:01:46;2.34;82.96
72772;SHT30;60894;42.544;1.516;2023-12-14T08:04:14;2.37;82.44
72772;SHT30;60894;42.544;1.516;2023-12-14T08:06:43;2.35;83.36
72772;SHT30;60894;42.544;1.516;2023-12-14T08:09:10;2.51;83.53
72772;SHT30;60894;42.544;1.516;2023-12-14T08:11:37;2.45;83.29
72772;SHT30;60894;42.544;1.516;2023-12-14T08:14:03;2.49;83.36
72772;SHT30;60894;42.544;1.516;2023-12-14T08:16:30;2.56;83.39
72772;SHT30;60894;42.544;1.516;2023-12-14T08:18:57;2.55;82.48
72772;SHT30;60894;42.544;1.516;2023-12-14T08:21:24;2.63;81.35
72772;SHT30;60894;42.544;1.516;2023-12-14T08:23:53;2.69;82.46
72772;SHT30;60894;42.544;1.516;2023-12-14T08:26:20;2.61;81.00
72772;SHT30;60894;42.544;1.516;2023-12-14T08:28:47;2.66;81.56
72772;SHT30;60894;42.544;1.516;2023-12-14T08:31:13;2.86;80.66
72772;SHT30;60894;42.544;1.516;2023-12-14T08:33:41;2.75;79.52
72772;SHT30;60894;42.544;1.516;2023-12-14T08:36:08;2.79;78.63
72772;SHT30;60894;42.544;1.516;2023-12-14T08:38:35;2.76;79.69
72772;SHT30;60894;42.544;1.516;2023-12-14T08:41:03;2.65;80.92
72772;SHT30;60894;42.544;1.516;2023-12-14T08:43:30;2.75;80.69
72772;SHT30;60894;42.544;1.516;2023-12-14T08:45:57;2.88;80.12
72772;SHT30;60894;42.544;1.516;2023-12-14T08:48:24;2.81;76.67
72772;SHT30;60894;42.544;1.516;2023-12-14T08:50:53;2.63;76.17
72772;SHT30;60894;42.544;1.516;2023-12-14T08:53:20;2.55;73.23
72772;SHT30;60894;42.544;1.516;2023-12-14T08:55:47;2.49;74.09
72772;SHT30;60894;42.544;1.516;2023-12-14T08:58:15;2.51;74.66
72772;SHT30;60894;42.544;1.516;2023-12-14T09:00:43;2.37;72.52
72772;SHT30;60894;42.544;1.516;2023-12-14T09:03:10;2.42;74.37
72772;SHT30;60894;42.544;1.516;2023-12-14T09:05:37;2.49;73.81
72772;SHT30;60894;42.544;1.516;2023-12-14T09:08:07;2.52;72.56
72772;SHT30;60894;42.544;1.516;2023-12-14T09:10:34;2.53;70.89
72772;SHT30;60894;42.544;1.516;2023-12-14T09:13:01;2.69;74.63
72772;SHT30;60894;42.544;1.516;2023-12-14T09:15:32;2.73;78.03
72772;SHT30;60894;42.544;1.516;2023-12-14T09:18:00;2.49;73.13
72772;SHT30;60894;42.544;1.516;2023-12-14T09:20:27;2.65;72.43
72772;SHT30;60894;42.544;1.516;2023-12-14T09:22:54;2.89;75.72
72772;SHT30;60894;42.544;1.516;2023-12-14T09:25:21;2.83;75.68
72772;SHT30;60894;42.544;1.516;2023-12-14T09:27:47;2.99;76.65
72772;SHT30;60894;42.544;1.516;2023-12-14T09:30:15;3.12;77.70
72772;SHT30;60894;42.544;1.516;2023-12-14T09:32:44;3.23;68.33
72772;SHT30;60894;42.544;1.516;2023-12-14T09:35:11;3.33;69.79
72772;SHT30;60894;42.544;1.516;2023-12-14T09:37:38;3.30;70.99
72772;SHT30;60894;42.544;1.516;2023-12-14T09:40:08;3.47;65.04
72772;SHT30;60894;42.544;1.516;2023-12-14T09:42:38;3.47;63.60
72772;SHT30;60894;42.544;1.516;2023-12-14T09:45:07;3.64;67.37
72772;SHT30;60894;42.544;1.516;2023-12-14T09:47:35;3.68;67.90
72772;SHT30;60894;42.544;1.516;2023-12-14T09:50:04;3.55;68.01
72772;SHT30;60894;42.544;1.516;2023-12-14T09:52:31;3.67;65.49
72772;SHT30;60894;42.544;1.516;2023-12-14T09:54:59;3.84;65.55
72772;SHT30;60894;42.544;1.516;2023-12-14T09:57:26;3.91;64.36
72772;SHT30;60894;42.544;1.516;2023-12-14T09:59:53;4.07;64.89
72772;SHT30;60894;42.544;1.516;2023-12-14T10:02:24;4.01;64.17
72772;SHT30;60894;42.544;1.516;2023-12-14T10:04:52;4.15;66.03
72772;SHT30;60894;42.544;1.516;2023-12-14T10:07:21;4.07;64.92
72772;SHT30;60894;42.544;1.516;2023-12-14T10:09:48;3.96;62.56
72772;SHT30;60894;42.544;1.516;2023-12-14T10:12:15;3.99;64.83
72772;SHT30;60894;42.544;1.516;2023-12-14T10:14:42;3.92;65.55
72772;SHT30;60894;42.544;1.516;2023-12-14T10:17:18;4.17;66.20
72772;SHT30;60894;42.544;1.516;2023-12-14T10:19:46;4.33;64.11
72772;SHT30;60894;42.544;1.516;2023-12-14T10:22:13;4.36;67.21
72772;SHT30;60894;42.544;1.516;2023-12-14T10:24:44;4.40;64.13
72772;SHT30;60894;42.544;1.516;2023-12-14T10:27:11;4.36;66.25
72772;SHT30;60894;42.544;1.516;2023-12-14T10:29:38;4.34;65.34
72772;SHT30;60894;42.544;1.516;2023-12-14T10:32:06;4.42;64.89
72772;SHT30;60894;42.544;1.516;2023-12-14T10:34:34;4.44;62.02
72772;SHT30;60894;42.544;1.516;2023-12-14T10:37:04;4.42;62.57
72772;SHT30;60894;42.544;1.516;2023-12-14T10:39:31;4.58;63.20
72772;SHT30;60894;42.544;1.516;2023-12-14T10:42:02;4.98;61.05
72772;SHT30;60894;42.544;1.516;2023-12-14T10:44:32;5.18;60.06
72772;SHT30;60894;42.544;1.516;2023-12-14T10:47:02;5.34;58.22
72772;SHT30;60894;42.544;1.516;2023-12-14T10:49:31;5.22;55.82
72772;SHT30;60894;42.544;1.516;2023-12-14T10:52:00;5.59;58.07
72772;SHT30;60894;42.544;1.516;2023-12-14T10:54:31;5.67;56.28
72772;SHT30;60894;42.544;1.516;2023-12-14T10:56:59;5.85;52.06
72772;SHT30;60894;42.544;1.516;2023-12-14T10:59:27;5.63;47.41
72772;SHT30;60894;42.544;1.516;2023-12-14T11:01:55;5.70;49.68
72772;SHT30;60894;42.544;1.516;2023-12-14T11:04:22;6.17;49.18
72772;SHT30;60894;42.544;1.516;2023-12-14T11:06:53;6.35;50.05
72772;SHT30;60894;42.544;1.516;2023-12-14T11:09:22;5.98;46.12
72772;SHT30;60894;42.544;1.516;2023-12-14T11:11:55;6.39;46.44
72772;SHT30;60894;42.544;1.516;2023-12-14T11:14:27;6.69;48.82
72772;SHT30;60894;42.544;1.516;2023-12-14T11:16:55;6.85;48.95
72772;SHT30;60894;42.544;1.516;2023-12-14T11:19:29;7.41;46.20
72772;SHT30;60894;42.544;1.516;2023-12-14T11:22:10;7.95;46.60
72772;SHT30;60894;42.544;1.516;2023-12-14T11:24:41;8.37;44.82
72772;SHT30;60894;42.544;1.516;2023-12-14T11:27:09;8.40;45.17
72772;SHT30;60894;42.544;1.516;2023-12-14T11:29:38;8.41;42.18
72772;SHT30;60894;42.544;1.516;2023-12-14T11:32:07;8.54;42.14
72772;SHT30;60894;42.544;1.516;2023-12-14T11:34:34;8.47;39.80
72772;SHT30;60894;42.544;1.516;2023-12-14T11:37:02;8.61;40.29
72772;SHT30;60894;42.544;1.516;2023-12-14T11:39:32;9.07;43.17
72772;SHT30;60894;42.544;1.516;2023-12-14T11:42:00;9.08;42.14
72772;SHT30;60894;42.544;1.516;2023-12-14T11:44:27;9.18;43.93
72772;SHT30;60894;42.544;1.516;2023-12-14T11:46:55;9.14;42.24
72772;SHT30;60894;42.544;1.516;2023-12-14T11:49:24;9.28;42.02
72772;SHT30;60894;42.544;1.516;2023-12-14T11:51:51;9.77;38.62
72772;SHT30;60894;42.544;1.516;2023-12-14T11:54:18;9.01;35.31
72772;SHT30;60894;42.544;1.516;2023-12-14T11:56:46;9.22;45.15
72772;SHT30;60894;42.544;1.516;2023-12-14T11:59:15;9.66;43.14
72772;SHT30;60894;42.544;1.516;2023-12-14T12:01:55;9.93;40.84
72772;SHT30;60894;42.544;1.516;2023-12-14T12:04:23;10.25;42.18
72772;SHT30;60894;42.544;1.516;2023-12-14T12:06:58;10.97;51.13
72772;SHT30;60894;42.544;1.516;2023-12-14T12:09:34;11.41;39.35
72772;SHT30;60894;42.544;1.516;2023-12-14T12:12:01;10.92;38.17
72772;SHT30;60894;42.544;1.516;2023-12-14T12:14:28;10.56;34.91
72772;SHT30;60894;42.544;1.516;2023-12-14T12:16:56;9.95;35.47
72772;SHT30;60894;42.544;1.516;2023-12-14T12:19:23;9.87;39.53
72772;SHT30;60894;42.544;1.516;2023-12-14T12:21:50;10.11;37.21
72772;SHT30;60894;42.544;1.516;2023-12-14T12:24:18;10.31;38.71
72772;SHT30;60894;42.544;1.516;2023-12-14T12:26:45;10.91;42.26
72772;SHT30;60894;42.544;1.516;2023-12-14T12:29:12;11.51;43.87
72772;SHT30;60894;42.544;1.516;2023-12-14T12:31:39;11.61;36.46
72772;SHT30;60894;42.544;1.516;2023-12-14T12:34:07;11.65;36.86
72772;SHT30;60894;42.544;1.516;2023-12-14T12:36:34;11.65;37.61
72772;SHT30;60894;42.544;1.516;2023-12-14T12:39:02;11.78;38.26
72772;SHT30;60894;42.544;1.516;2023-12-14T12:41:31;11.89;37.53
72772;SHT30;60894;42.544;1.516;2023-12-14T12:43:59;12.12;35.93
72772;SHT30;60894;42.544;1.516;2023-12-14T12:46:31;12.26;36.72
72772;SHT30;60894;42.544;1.516;2023-12-14T12:48:59;12.36;37.45
72772;SHT30;60894;42.544;1.516;2023-12-14T12:51:27;12.06;32.96
72772;SHT30;60894;42.544;1.516;2023-12-14T12:53:55;11.88;32.89
72772;SHT30;60894;42.544;1.516;2023-12-14T12:56:22;12.02;33.46
72772;SHT30;60894;42.544;1.516;2023-12-14T12:58:49;11.67;33.22
72772;SHT30;60894;42.544;1.516;2023-12-14T13:01:19;11.31;34.83
72772;SHT30;60894;42.544;1.516;2023-12-14T13:03:46;11.26;34.21
72772;SHT30;60894;42.544;1.516;2023-12-14T13:06:13;10.68;33.10
72772;SHT30;60894;42.544;1.516;2023-12-14T13:08:41;10.41;33.57
72772;SHT30;60894;42.544;1.516;2023-12-14T13:11:08;10.18;34.69
72772;SHT30;60894;42.544;1.516;2023-12-14T13:13:35;10.18;33.91
72772;SHT30;60894;42.544;1.516;2023-12-14T13:16:02;9.84;33.85
72772;SHT30;60894;42.544;1.516;2023-12-14T13:18:29;9.59;34.22
72772;SHT30;60894;42.544;1.516;2023-12-14T13:20:56;10.04;35.34
72772;SHT30;60894;42.544;1.516;2023-12-14T13:23:24;10.31;35.06
72772;SHT30;60894;42.544;1.516;2023-12-14T13:25:52;10.56;34.02
72772;SHT30;60894;42.544;1.516;2023-12-14T13:28:19;10.65;34.46
72772;SHT30;60894;42.544;1.516;2023-12-14T13:30:46;10.62;34.57
72772;SHT30;60894;42.544;1.516;2023-12-14T13:33:13;10.63;34.54
72772;SHT30;60894;42.544;1.516;2023-12-14T13:35:40;10.61;34.19
72772;SHT30;60894;42.544;1.516;2023-12-14T13:38:08;11.13;34.74
72772;SHT30;60894;42.544;1.516;2023-12-14T13:40:35;11.07;32.51
72772;SHT30;60894;42.544;1.516;2023-12-14T13:43:06;10.88;34.31
72772;SHT30;60894;42.544;1.516;2023-12-14T13:45:36;10.25;33.08
72772;SHT30;60894;42.544;1.516;2023-12-14T13:48:03;10.04;34.29
72772;SHT30;60894;42.544;1.516;2023-12-14T13:50:30;10.07;34.56
72772;SHT30;60894;42.544;1.516;2023-12-14T13:52:57;10.37;34.36
72772;SHT30;60894;42.544;1.516;2023-12-14T13:55:24;10.07;33.97
72772;SHT30;60894;42.544;1.516;2023-12-14T13:57:51;10.11;33.95
72772;SHT30;60894;42.544;1.516;2023-12-14T14:00:19;10.21;33.01
72772;SHT30;60894;42.544;1.516;2023-12-14T14:02:47;10.13;32.41
72772;SHT30;60894;42.544;1.516;2023-12-14T14:05:14;10.21;32.35
72772;SHT30;60894;42.544;1.516;2023-12-14T14:07:41;10.30;33.16
72772;SHT30;60894;42.544;1.516;2023-12-14T14:10:12;10.56;33.10
72772;SHT30;60894;42.544;1.516;2023-12-14T14:12:40;10.62;32.04
72772;SHT30;60894;42.544;1.516;2023-12-14T14:15:08;10.30;32.06
72772;SHT30;60894;42.544;1.516;2023-12-14T14:17:37;9.25;31.49
72772;SHT30;60894;42.544;1.516;2023-12-14T14:20:05;8.32;33.81
72772;SHT30;60894;42.544;1.516;2023-12-14T14:22:34;7.91;33.50
72772;SHT30;60894;42.544;1.516;2023-12-14T14:25:01;7.64;34.47
72772;SHT30;60894;42.544;1.516;2023-12-14T14:27:28;7.38;35.15
72772;SHT30;60894;42.544;1.516;2023-12-14T14:29:55;7.32;35.62
72772;SHT30;60894;42.544;1.516;2023-12-14T14:32:22;7.11;35.56
72772;SHT30;60894;42.544;1.516;2023-12-14T14:34:50;6.66;35.27
72772;SHT30;60894;42.544;1.516;2023-12-14T14:37:20;6.68;37.03
72772;SHT30;60894;42.544;1.516;2023-12-14T14:39:47;6.49;36.63
72772;SHT30;60894;42.544;1.516;2023-12-14T14:42:14;6.45;38.08
72772;SHT30;60894;42.544;1.516;2023-12-14T14:44:44;6.53;35.89
72772;SHT30;60894;42.544;1.516;2023-12-14T14:47:11;6.48;35.81
72772;SHT30;60894;42.544;1.516;2023-12-14T14:49:39;6.45;35.56
72772;SHT30;60894;42.544;1.516;2023-12-14T14:52:07;6.49;35.98
72772;SHT30;60894;42.544;1.516;2023-12-14T14:54:34;6.28;35.09
72772;SHT30;60894;42.544;1.516;2023-12-14T14:57:01;6.25;33.99
72772;SHT30;60894;42.544;1.516;2023-12-14T14:59:27;6.18;34.74
72772;SHT30;60894;42.544;1.516;2023-12-14T15:01:56;6.17;35.64
72772;SHT30;60894;42.544;1.516;2023-12-14T15:04:25;6.16;35.31
72772;SHT30;60894;42.544;1.516;2023-12-14T15:06:52;6.13;34.32
72772;SHT30;60894;42.544;1.516;2023-12-14T15:09:20;6.10;35.10
72772;SHT30;60894;42.544;1.516;2023-12-14T15:11:47;6.17;36.17
72772;SHT30;60894;42.544;1.516;2023-12-14T15:14:14;5.67;36.91
72772;SHT30;60894;42.544;1.516;2023-12-14T15:16:41;5.76;37.22
72772;SHT30;60894;42.544;1.516;2023-12-14T15:19:08;5.87;34.55
72772;SHT30;60894;42.544;1.516;2023-12-14T15:21:36;5.83;35.71
72772;SHT30;60894;42.544;1.516;2023-12-14T15:24:04;5.87;36.35
72772;SHT30;60894;42.544;1.516;2023-12-14T15:26:32;5.81;35.89
72772;SHT30;60894;42.544;1.516;2023-12-14T15:29:02;5.76;35.31
72772;SHT30;60894;42.544;1.516;2023-12-14T15:31:29;5.78;34.95
72772;SHT30;60894;42.544;1.516;2023-12-14T15:33:56;5.67;35.15
72772;SHT30;60894;42.544;1.516;2023-12-14T15:36:23;5.62;35.48
72772;SHT30;60894;42.544;1.516;2023-12-14T15:38:50;5.63;35.81
72772;SHT30;60894;42.544;1.516;2023-12-14T15:41:17;5.66;35.92
72772;SHT30;60894;42.544;1.516;2023-12-14T15:43:46;5.70;35.12
72772;SHT30;60894;42.544;1.516;2023-12-14T15:46:13;5.71;37.04
72772;SHT30;60894;42.544;1.516;2023-12-14T15:48:40;5.74;37.56